Time,TemperatureF,DewpointF,PressureIn,WindDirection,WindDirectionDegrees,WindSpeedMPH,WindSpeedGustMPH,Humidity,HourlyPrecipIn,Conditions,Clouds,dailyrainin,SoftwareType,DateUTC
2013-01-16 00:00:00,31.3,30.5,30.17,ESE,110,0.0,0.0,97,0.09,,---,0.41,VWS V14.01,2013-01-16 05:00:00,
2013-01-16 00:01:00,31.3,30.5,30.17,East,97,0.0,0.0,97,0.09,,---,0.41,VWS V14.01,2013-01-16 05:01:00,
2013-01-16 00:02:00,31.3,30.5,30.17,ESE,107,0.0,1.0,97,0.08,,---,0.00,VWS V14.01,2013-01-16 05:02:00,
2013-01-16 00:03:00,31.3,30.5,30.17,East,95,0.0,1.0,97,0.08,,---,0.00,VWS V14.01,2013-01-16 05:03:00,
2013-01-16 00:08:00,31.3,30.5,30.16,ESE,113,1.0,1.0,97,0.08,,---,0.01,VWS V14.01,2013-01-16 05:08:00,
2013-01-16 00:13:00,31.3,30.5,30.16,ESE,110,1.0,1.0,97,0.09,,---,0.02,VWS V14.01,2013-01-16 05:13:00,
2013-01-16 00:18:00,31.3,30.5,30.16,ESE,117,1.0,1.0,97,0.09,,---,0.03,VWS V14.01,2013-01-16 05:18:00,
2013-01-16 00:23:00,31.2,30.5,30.15,ESE,118,0.0,2.0,97,0.10,,---,0.04,VWS V14.01,2013-01-16 05:23:00,
2013-01-16 00:28:00,31.2,30.5,30.14,ESE,107,0.0,2.0,97,0.11,,---,0.06,VWS V14.01,2013-01-16 05:28:00,
2013-01-16 00:33:00,31.2,30.5,30.14,ESE,113,2.0,2.0,97,0.12,,---,0.07,VWS V14.01,2013-01-16 05:33:00,
2013-01-16 00:38:00,31.1,30.4,30.14,ENE,78,0.0,1.0,97,0.12,,---,0.08,VWS V14.01,2013-01-16 05:38:00,
2013-01-16 00:43:00,31.0,30.2,30.13,ESE,105,1.0,1.0,97,0.12,,---,0.09,VWS V14.01,2013-01-16 05:43:00,
2013-01-16 00:48:00,31.0,30.2,30.13,ESE,121,0.0,1.0,97,0.12,,---,0.10,VWS V14.01,2013-01-16 05:48:00,
2013-01-16 00:53:00,31.0,30.2,30.14,ESE,102,0.0,0.0,97,0.13,,---,0.12,VWS V14.01,2013-01-16 05:53:00,
2013-01-16 00:58:00,31.0,30.2,30.14,ESE,104,0.0,0.0,97,0.13,,---,0.13,VWS V14.01,2013-01-16 05:58:00,
2013-01-16 01:04:00,31.2,30.5,30.14,ESE,105,0.0,0.0,97,0.15,,---,0.15,VWS V14.01,2013-01-16 06:04:00,
2013-01-16 01:09:00,31.1,30.4,30.14,ESE,104,0.0,1.0,97,0.16,,---,0.17,VWS V14.01,2013-01-16 06:09:00,
2013-01-16 01:14:00,31.1,30.4,30.13,ESE,109,0.0,0.0,97,0.17,,---,0.19,VWS V14.01,2013-01-16 06:14:00,
2013-01-16 01:19:00,31.1,30.4,30.13,ESE,108,0.0,0.0,97,0.17,,---,0.20,VWS V14.01,2013-01-16 06:19:00,
2013-01-16 01:24:00,31.2,30.5,30.14,SE,136,0.0,0.0,97,0.16,,---,0.20,VWS V14.01,2013-01-16 06:24:00,
2013-01-16 01:29:00,31.2,30.5,30.14,SE,136,0.0,0.0,97,0.16,,---,0.22,VWS V14.01,2013-01-16 06:29:00,
2013-01-16 01:34:00,31.2,30.5,30.15,SE,136,0.0,0.0,97,0.18,,---,0.25,VWS V14.01,2013-01-16 06:34:00,
2013-01-16 01:39:00,31.3,30.5,30.14,SE,135,0.0,0.0,97,0.18,,---,0.26,VWS V14.01,2013-01-16 06:39:00,
2013-01-16 01:44:00,31.2,30.5,30.16,SE,136,0.0,0.0,97,0.18,,---,0.27,VWS V14.01,2013-01-16 06:44:00,
2013-01-16 01:49:00,31.2,30.5,30.15,SE,136,0.0,0.0,97,0.18,,---,0.28,VWS V14.01,2013-01-16 06:49:00,
2013-01-16 01:54:00,31.3,30.5,30.15,SE,135,0.0,0.0,97,0.17,,---,0.29,VWS V14.01,2013-01-16 06:54:00,
2013-01-16 01:59:00,31.3,30.5,30.15,SE,131,0.0,0.0,97,0.18,,---,0.31,VWS V14.01,2013-01-16 06:59:00,
2013-01-16 02:04:00,31.3,30.5,30.14,ESE,123,0.0,0.0,97,0.17,,---,0.32,VWS V14.01,2013-01-16 07:04:00,
2013-01-16 02:09:00,31.2,30.5,30.14,ESE,113,0.0,0.0,97,0.16,,---,0.33,VWS V14.01,2013-01-16 07:09:00,
2013-01-16 02:14:00,31.2,30.5,30.14,ESE,113,0.0,0.0,97,0.15,,---,0.34,VWS V14.01,2013-01-16 07:14:00,
2013-01-16 02:19:00,31.2,30.5,30.14,ESE,113,0.0,0.0,97,0.14,,---,0.34,VWS V14.01,2013-01-16 07:19:00,
2013-01-16 02:24:00,31.2,30.5,30.14,ESE,108,0.0,0.0,97,0.15,,---,0.35,VWS V14.01,2013-01-16 07:24:00,
2013-01-16 02:30:00,31.2,30.5,30.13,ESE,102,0.0,1.0,97,0.14,,---,0.36,VWS V14.01,2013-01-16 07:30:00,
2013-01-16 02:35:00,31.2,30.5,30.12,ESE,114,0.0,1.0,97,0.11,,---,0.36,VWS V14.01,2013-01-16 07:35:00,
2013-01-16 02:40:00,31.1,30.4,30.12,SE,124,0.0,1.0,97,0.10,,---,0.36,VWS V14.01,2013-01-16 07:40:00,
2013-01-16 02:45:00,31.1,30.4,30.11,East,85,0.0,1.0,97,0.09,,---,0.36,VWS V14.01,2013-01-16 07:45:00,
2013-01-16 02:50:00,31.1,30.4,30.11,ESE,103,0.0,1.0,97,0.08,,---,0.36,VWS V14.01,2013-01-16 07:50:00,
2013-01-16 02:55:00,31.2,30.5,30.12,East,94,0.0,1.0,97,0.07,,---,0.36,VWS V14.01,2013-01-16 07:55:00,
2013-01-16 03:00:00,30.9,30.1,30.11,East,95,1.0,1.0,97,0.05,,---,0.36,VWS V14.01,2013-01-16 08:00:00,
2013-01-16 03:06:00,30.9,30.1,30.11,East,101,0.0,0.0,97,0.04,,---,0.36,VWS V14.01,2013-01-16 08:06:00,
2013-01-16 03:11:00,31.0,30.2,30.11,East,83,0.0,0.0,97,0.03,,---,0.36,VWS V14.01,2013-01-16 08:11:00,
2013-01-16 03:16:00,30.9,30.1,30.11,ENE,74,0.0,1.0,97,0.02,,---,0.36,VWS V14.01,2013-01-16 08:16:00,
2013-01-16 03:21:00,30.9,30.1,30.10,East,84,0.0,1.0,97,0.01,,---,0.36,VWS V14.01,2013-01-16 08:21:00,
2013-01-16 03:26:00,30.8,30.0,30.11,ESE,117,0.0,0.0,97,0.01,,---,0.36,VWS V14.01,2013-01-16 08:26:00,
2013-01-16 03:31:00,30.7,30.0,30.10,ESE,103,0.0,1.0,97,0.00,,---,0.36,VWS V14.01,2013-01-16 08:31:00,
2013-01-16 03:36:00,30.7,30.0,30.08,SE,128,1.0,2.0,97,0.00,,---,0.36,VWS V14.01,2013-01-16 08:36:00,
2013-01-16 03:41:00,30.7,30.0,30.08,ESE,108,2.0,2.0,97,0.00,,---,0.36,VWS V14.01,2013-01-16 08:41:00,
2013-01-16 03:46:00,30.6,29.9,30.08,SSE,149,1.0,2.0,97,0.00,,---,0.36,VWS V14.01,2013-01-16 08:46:00,
2013-01-16 03:51:00,30.6,29.9,30.07,East,94,0.0,0.0,97,0.00,,---,0.36,VWS V14.01,2013-01-16 08:51:00,
2013-01-16 03:56:00,30.7,30.0,30.08,East,88,0.0,0.0,97,0.00,,---,0.36,VWS V14.01,2013-01-16 08:56:00,
2013-01-16 04:01:00,30.6,29.9,30.08,East,87,0.0,0.0,97,0.00,,---,0.36,VWS V14.01,2013-01-16 09:01:00,
2013-01-16 04:06:00,30.6,29.9,30.08,East,88,0.0,0.0,97,0.00,,---,0.36,VWS V14.01,2013-01-16 09:06:00,
2013-01-16 04:11:00,30.6,29.9,30.08,ESE,110,0.0,0.0,97,0.00,,---,0.36,VWS V14.01,2013-01-16 09:11:00,
2013-01-16 04:16:00,30.6,29.9,30.08,ESE,116,1.0,1.0,97,0.00,,---,0.36,VWS V14.01,2013-01-16 09:16:00,
2013-01-16 04:21:00,30.6,29.9,30.06,ESE,110,1.0,1.0,97,0.01,,---,0.37,VWS V14.01,2013-01-16 09:21:00,
2013-01-16 04:26:00,30.6,29.9,30.06,ESE,107,1.0,1.0,97,0.01,,---,0.37,VWS V14.01,2013-01-16 09:26:00,
2013-01-16 04:31:00,30.5,29.8,30.05,East,96,0.0,0.0,97,0.01,,---,0.37,VWS V14.01,2013-01-16 09:31:00,
2013-01-16 04:36:00,30.6,29.9,30.05,East,87,1.0,1.0,97,0.01,,---,0.37,VWS V14.01,2013-01-16 09:36:00,
2013-01-16 04:42:00,30.6,29.9,30.04,East,88,0.0,1.0,97,0.01,,---,0.37,VWS V14.01,2013-01-16 09:42:00,
2013-01-16 04:47:00,30.6,29.9,30.05,East,87,0.0,0.0,97,0.01,,---,0.37,VWS V14.01,2013-01-16 09:47:00,
2013-01-16 04:52:00,30.6,29.9,30.06,East,94,0.0,0.0,97,0.01,,---,0.37,VWS V14.01,2013-01-16 09:52:00,
2013-01-16 04:57:00,30.6,29.9,30.07,East,97,0.0,0.0,97,0.01,,---,0.37,VWS V14.01,2013-01-16 09:57:00,
2013-01-16 05:02:00,30.6,29.9,30.07,East,96,0.0,0.0,97,0.01,,---,0.37,VWS V14.01,2013-01-16 10:02:00,
2013-01-16 05:07:00,30.6,29.9,30.08,East,96,0.0,0.0,97,0.01,,---,0.37,VWS V14.01,2013-01-16 10:07:00,
2013-01-16 05:12:00,30.6,29.9,30.07,East,96,0.0,0.0,97,0.01,,---,0.37,VWS V14.01,2013-01-16 10:12:00,
2013-01-16 05:17:00,30.6,29.9,30.08,East,96,0.0,0.0,97,0.01,,---,0.37,VWS V14.01,2013-01-16 10:17:00,
2013-01-16 05:22:00,30.7,30.0,30.09,East,96,0.0,0.0,97,0.00,,---,0.37,VWS V14.01,2013-01-16 10:22:00,
2013-01-16 05:27:00,30.7,30.0,30.08,East,96,0.0,0.0,97,0.01,,---,0.38,VWS V14.01,2013-01-16 10:27:00,
2013-01-16 05:32:00,30.7,30.0,30.07,East,96,0.0,0.0,97,0.01,,---,0.38,VWS V14.01,2013-01-16 10:32:00,
2013-01-16 05:37:00,30.8,30.3,30.07,East,96,0.0,0.0,98,0.01,,---,0.38,VWS V14.01,2013-01-16 10:37:00,
2013-01-16 05:42:00,30.8,30.3,30.07,East,97,0.0,0.0,98,0.01,,---,0.38,VWS V14.01,2013-01-16 10:42:00,
2013-01-16 05:47:00,30.9,30.4,30.07,East,97,0.0,0.0,98,0.02,,---,0.39,VWS V14.01,2013-01-16 10:47:00,
2013-01-16 05:53:00,30.9,30.4,30.07,East,98,0.0,0.0,98,0.02,,---,0.39,VWS V14.01,2013-01-16 10:53:00,
2013-01-16 05:58:00,30.9,30.4,30.07,East,97,0.0,0.0,98,0.02,,---,0.39,VWS V14.01,2013-01-16 10:58:00,
2013-01-16 06:03:00,31.0,30.5,30.07,East,97,0.0,0.0,98,0.02,,---,0.39,VWS V14.01,2013-01-16 11:03:00,
2013-01-16 06:08:00,31.0,30.5,30.07,East,97,0.0,0.0,98,0.02,,---,0.39,VWS V14.01,2013-01-16 11:08:00,
2013-01-16 06:13:00,30.9,30.4,30.07,East,97,0.0,0.0,98,0.02,,---,0.39,VWS V14.01,2013-01-16 11:13:00,
2013-01-16 06:18:00,31.0,30.5,30.07,East,97,0.0,0.0,98,0.03,,---,0.40,VWS V14.01,2013-01-16 11:18:00,
2013-01-16 06:23:00,31.0,30.5,30.06,East,97,0.0,0.0,98,0.03,,---,0.40,VWS V14.01,2013-01-16 11:23:00,
2013-01-16 06:28:00,31.0,30.5,30.07,East,97,0.0,0.0,98,0.02,,---,0.40,VWS V14.01,2013-01-16 11:28:00,
2013-01-16 06:34:00,31.0,30.5,30.06,East,97,0.0,0.0,98,0.02,,---,0.40,VWS V14.01,2013-01-16 11:34:00,
2013-01-16 06:39:00,31.0,30.5,30.06,East,97,0.0,0.0,98,0.03,,---,0.41,VWS V14.01,2013-01-16 11:39:00,
2013-01-16 06:44:00,31.0,30.5,30.05,East,98,0.0,0.0,98,0.03,,---,0.41,VWS V14.01,2013-01-16 11:44:00,
2013-01-16 06:49:00,31.0,30.5,30.05,East,98,0.0,0.0,98,0.02,,---,0.41,VWS V14.01,2013-01-16 11:49:00,
2013-01-16 06:54:00,31.1,30.6,30.04,ESE,102,0.0,0.0,98,0.02,,---,0.41,VWS V14.01,2013-01-16 11:54:00,
2013-01-16 06:59:00,31.1,30.6,30.03,ESE,103,0.0,0.0,98,0.03,,---,0.42,VWS V14.01,2013-01-16 11:59:00,
2013-01-16 07:04:00,31.1,30.6,30.03,ESE,105,0.0,0.0,98,0.03,,---,0.42,VWS V14.01,2013-01-16 12:04:00,
2013-01-16 07:09:00,31.2,30.7,30.03,ESE,105,0.0,0.0,98,0.04,,---,0.43,VWS V14.01,2013-01-16 12:09:00,
2013-01-16 07:14:00,31.2,30.7,30.03,ESE,115,0.0,0.0,98,0.04,,---,0.43,VWS V14.01,2013-01-16 12:14:00,
2013-01-16 07:20:00,31.2,30.7,30.03,East,98,0.0,0.0,98,0.04,,---,0.44,VWS V14.01,2013-01-16 12:20:00,
2013-01-16 07:25:00,31.2,30.7,30.03,ESE,110,0.0,0.0,98,0.04,,---,0.44,VWS V14.01,2013-01-16 12:25:00,
2013-01-16 07:30:00,31.2,30.7,30.03,East,99,0.0,0.0,98,0.05,,---,0.45,VWS V14.01,2013-01-16 12:30:00,
2013-01-16 07:35:00,31.1,30.6,30.02,ESE,110,0.0,0.0,98,0.04,,---,0.45,VWS V14.01,2013-01-16 12:35:00,
2013-01-16 07:40:00,31.1,30.6,30.03,SE,132,0.0,0.0,98,0.04,,---,0.45,VWS V14.01,2013-01-16 12:40:00,
2013-01-16 07:45:00,31.1,30.6,30.03,East,91,0.0,0.0,98,0.05,,---,0.46,VWS V14.01,2013-01-16 12:45:00,
2013-01-16 07:50:00,31.2,30.7,30.02,East,91,0.0,0.0,98,0.05,,---,0.46,VWS V14.01,2013-01-16 12:50:00,
2013-01-16 07:55:00,31.1,30.6,30.02,East,101,0.0,0.0,98,0.05,,---,0.46,VWS V14.01,2013-01-16 12:55:00,
2013-01-16 08:00:00,31.0,30.5,30.02,ESE,105,0.0,0.0,98,0.05,,---,0.47,VWS V14.01,2013-01-16 13:00:00,
2013-01-16 08:06:00,31.1,30.6,30.02,ESE,106,0.0,0.0,98,0.05,,---,0.47,VWS V14.01,2013-01-16 13:06:00,
2013-01-16 08:11:00,31.2,30.7,30.02,ESE,121,0.0,0.0,98,0.04,,---,0.47,VWS V14.01,2013-01-16 13:11:00,
2013-01-16 08:16:00,31.2,30.7,30.02,SE,124,0.0,0.0,98,0.04,,---,0.47,VWS V14.01,2013-01-16 13:16:00,
2013-01-16 08:21:00,31.2,30.7,30.02,ESE,113,0.0,0.0,98,0.04,,---,0.48,VWS V14.01,2013-01-16 13:21:00,
2013-01-16 08:26:00,31.2,30.7,30.01,ESE,119,0.0,0.0,98,0.04,,---,0.48,VWS V14.01,2013-01-16 13:26:00,
2013-01-16 08:31:00,31.1,30.6,30.01,SE,131,0.0,0.0,98,0.03,,---,0.48,VWS V14.01,2013-01-16 13:31:00,
2013-01-16 08:36:00,31.2,30.7,30.02,ESE,121,0.0,0.0,98,0.04,,---,0.49,VWS V14.01,2013-01-16 13:36:00,
2013-01-16 08:41:00,31.2,30.7,30.01,East,101,0.0,0.0,98,0.04,,---,0.49,VWS V14.01,2013-01-16 13:41:00,
2013-01-16 08:46:00,31.1,30.6,30.00,SE,139,0.0,0.0,98,0.03,,---,0.49,VWS V14.01,2013-01-16 13:46:00,
2013-01-16 08:52:00,31.2,30.7,30.02,ENE,57,0.0,0.0,98,0.03,,---,0.49,VWS V14.01,2013-01-16 13:52:00,
2013-01-16 08:57:00,31.2,30.7,30.02,ESE,108,0.0,0.0,98,0.03,,---,0.49,VWS V14.01,2013-01-16 13:57:00,
2013-01-16 09:02:00,31.2,30.7,30.02,ESE,102,0.0,0.0,98,0.02,,---,0.49,VWS V14.01,2013-01-16 14:02:00,
2013-01-16 09:07:00,31.2,30.7,30.03,East,99,0.0,0.0,98,0.02,,---,0.49,VWS V14.01,2013-01-16 14:07:00,
2013-01-16 09:12:00,31.2,30.7,30.05,NNW,345,0.0,0.0,98,0.02,,---,0.49,VWS V14.01,2013-01-16 14:12:00,
2013-01-16 09:17:00,31.3,30.8,30.06,North,352,0.0,0.0,98,0.02,,---,0.49,VWS V14.01,2013-01-16 14:17:00,
2013-01-16 09:23:00,31.4,30.9,30.04,North,354,0.0,0.0,98,0.01,,---,0.49,VWS V14.01,2013-01-16 14:23:00,
2013-01-16 09:28:00,31.5,31.0,30.03,NE,53,0.0,0.0,98,0.01,,---,0.49,VWS V14.01,2013-01-16 14:28:00,
2013-01-16 09:33:00,31.6,31.1,30.04,NE,53,0.0,0.0,98,0.01,,---,0.49,VWS V14.01,2013-01-16 14:33:00,
2013-01-16 09:38:00,31.6,31.1,30.03,ENE,64,0.0,0.0,98,0.00,,---,0.49,VWS V14.01,2013-01-16 14:38:00,
2013-01-16 09:43:00,31.5,31.0,30.02,ENE,65,0.0,0.0,98,0.00,,---,0.49,VWS V14.01,2013-01-16 14:43:00,
2013-01-16 09:48:00,31.6,31.1,30.03,ENE,65,0.0,0.0,98,0.00,,---,0.49,VWS V14.01,2013-01-16 14:48:00,
2013-01-16 09:54:00,31.6,31.1,30.03,ENE,65,0.0,0.0,98,0.00,,---,0.49,VWS V14.01,2013-01-16 14:54:00,
2013-01-16 09:59:00,31.6,31.1,30.03,ENE,65,0.0,0.0,98,0.00,,---,0.49,VWS V14.01,2013-01-16 14:59:00,
2013-01-16 10:04:00,31.6,31.1,30.02,ESE,105,0.0,0.0,98,0.00,,---,0.49,VWS V14.01,2013-01-16 15:04:00,
2013-01-16 10:09:00,31.6,31.1,30.02,ESE,117,0.0,0.0,98,0.00,,---,0.49,VWS V14.01,2013-01-16 15:09:00,
2013-01-16 10:14:00,31.6,31.1,30.01,ESE,105,0.0,0.0,98,0.00,,---,0.49,VWS V14.01,2013-01-16 15:14:00,
2013-01-16 10:19:00,31.6,31.1,30.00,ESE,113,0.0,0.0,98,0.00,,---,0.49,VWS V14.01,2013-01-16 15:19:00,
2013-01-16 10:24:00,31.7,31.2,29.99,East,96,0.0,0.0,98,0.00,,---,0.49,VWS V14.01,2013-01-16 15:24:00,
2013-01-16 10:29:00,31.7,31.2,29.99,ESE,115,0.0,0.0,98,0.00,,---,0.49,VWS V14.01,2013-01-16 15:29:00,
2013-01-16 10:34:00,31.7,31.2,30.00,East,89,0.0,0.0,98,0.00,,---,0.49,VWS V14.01,2013-01-16 15:34:00,
2013-01-16 10:39:00,31.8,31.3,30.00,East,93,0.0,0.0,98,0.00,,---,0.49,VWS V14.01,2013-01-16 15:39:00,
2013-01-16 10:44:00,31.8,31.3,29.99,East,86,0.0,0.0,98,0.00,,---,0.49,VWS V14.01,2013-01-16 15:44:00,
2013-01-16 10:50:00,31.8,31.3,30.00,ESE,104,0.0,0.0,98,0.00,,---,0.49,VWS V14.01,2013-01-16 15:50:00,
2013-01-16 10:55:00,31.9,31.4,30.00,ESE,110,0.0,0.0,98,0.00,,---,0.49,VWS V14.01,2013-01-16 15:55:00,
2013-01-16 11:00:00,31.9,31.4,29.98,ESE,105,0.0,0.0,98,0.00,,---,0.49,VWS V14.01,2013-01-16 16:00:00,
2013-01-16 11:05:00,31.9,31.4,29.97,ESE,116,0.0,0.0,98,0.00,,---,0.49,VWS V14.01,2013-01-16 16:05:00,
2013-01-16 11:10:00,31.9,31.4,29.93,ESE,112,0.0,0.0,98,0.00,,---,0.49,VWS V14.01,2013-01-16 16:10:00,
2013-01-16 11:15:00,31.9,31.4,29.91,SE,124,0.0,0.0,98,0.00,,---,0.49,VWS V14.01,2013-01-16 16:15:00,
2013-01-16 11:20:00,32.0,31.5,29.90,East,89,0.0,0.0,98,0.00,,---,0.49,VWS V14.01,2013-01-16 16:20:00,
2013-01-16 11:25:00,32.0,31.5,29.89,SE,141,0.0,0.0,98,0.00,,---,0.49,VWS V14.01,2013-01-16 16:25:00,
2013-01-16 11:31:00,32.0,31.5,29.88,SE,124,0.0,0.0,98,0.00,,---,0.49,VWS V14.01,2013-01-16 16:31:00,
2013-01-16 11:35:00,32.1,31.6,29.88,SE,146,0.0,0.0,98,0.00,,---,0.49,VWS V14.01,2013-01-16 16:35:00,
2013-01-16 11:41:00,32.1,31.6,29.89,East,84,0.0,0.0,98,0.00,,---,0.49,VWS V14.01,2013-01-16 16:41:00,
2013-01-16 11:46:00,32.2,31.7,29.88,SE,135,0.0,0.0,98,0.00,,---,0.49,VWS V14.01,2013-01-16 16:46:00,
2013-01-16 11:51:00,32.3,31.8,29.89,ESE,113,0.0,0.0,98,0.00,,---,0.49,VWS V14.01,2013-01-16 16:51:00,
2013-01-16 11:56:00,32.3,31.8,29.88,ESE,104,0.0,0.0,98,0.00,,---,0.49,VWS V14.01,2013-01-16 16:56:00,
2013-01-16 12:01:00,32.3,31.8,29.86,East,81,0.0,0.0,98,0.00,,---,0.49,VWS V14.01,2013-01-16 17:01:00,
2013-01-16 12:06:00,32.3,31.8,29.90,NNE,13,0.0,0.0,98,0.00,,---,0.49,VWS V14.01,2013-01-16 17:06:00,
2013-01-16 12:11:00,32.4,31.9,29.89,ESE,123,0.0,0.0,98,0.00,,---,0.49,VWS V14.01,2013-01-16 17:11:00,
2013-01-16 12:17:00,32.4,31.9,29.89,SE,127,0.0,0.0,98,0.00,,---,0.49,VWS V14.01,2013-01-16 17:17:00,
2013-01-16 12:22:00,32.4,31.9,29.89,SE,127,0.0,0.0,98,0.00,,---,0.49,VWS V14.01,2013-01-16 17:22:00,
2013-01-16 12:27:00,32.4,31.9,29.88,East,82,0.0,0.0,98,0.00,,---,0.49,VWS V14.01,2013-01-16 17:27:00,
2013-01-16 12:32:00,32.4,31.9,29.86,ESE,112,0.0,0.0,98,0.00,,---,0.49,VWS V14.01,2013-01-16 17:32:00,
2013-01-16 12:37:00,32.5,32.0,29.90,SE,132,0.0,0.0,98,0.01,,---,0.50,VWS V14.01,2013-01-16 17:37:00,
2013-01-16 12:42:00,32.6,32.1,29.92,NW,323,0.0,0.0,98,0.01,,---,0.50,VWS V14.01,2013-01-16 17:42:00,
2013-01-16 12:47:00,32.4,31.9,29.90,WNW,302,0.0,0.0,98,0.01,,---,0.50,VWS V14.01,2013-01-16 17:47:00,
2013-01-16 12:52:00,32.4,31.9,29.90,SE,131,0.0,0.0,98,0.01,,---,0.50,VWS V14.01,2013-01-16 17:52:00,
2013-01-16 12:57:00,32.4,31.9,29.89,ESE,119,0.0,0.0,98,0.01,,---,0.50,VWS V14.01,2013-01-16 17:57:00,
2013-01-16 13:02:00,32.4,31.9,29.89,SE,141,0.0,0.0,98,0.01,,---,0.50,VWS V14.01,2013-01-16 18:02:00,
2013-01-16 13:07:00,32.5,32.0,29.89,WNW,303,0.0,0.0,98,0.01,,---,0.50,VWS V14.01,2013-01-16 18:07:00,
2013-01-16 13:12:00,32.5,32.0,29.90,WNW,303,0.0,0.0,98,0.01,,---,0.50,VWS V14.01,2013-01-16 18:12:00,
2013-01-16 13:17:00,32.4,31.9,29.90,SSE,156,0.0,0.0,98,0.01,,---,0.50,VWS V14.01,2013-01-16 18:17:00,
2013-01-16 13:22:00,32.4,31.9,29.90,SSE,157,0.0,0.0,98,0.01,,---,0.50,VWS V14.01,2013-01-16 18:22:00,
2013-01-16 13:27:00,32.5,32.0,29.90,WNW,301,0.0,0.0,98,0.02,,---,0.51,VWS V14.01,2013-01-16 18:27:00,
2013-01-16 13:33:00,32.5,32.0,29.91,West,280,0.0,0.0,98,0.01,,---,0.51,VWS V14.01,2013-01-16 18:33:00,
2013-01-16 13:38:00,32.5,32.0,29.90,West,276,0.0,0.0,98,0.01,,---,0.51,VWS V14.01,2013-01-16 18:38:00,
2013-01-16 13:43:00,32.6,32.1,29.91,West,277,0.0,0.0,98,0.01,,---,0.51,VWS V14.01,2013-01-16 18:43:00,
2013-01-16 13:48:00,32.7,32.2,29.91,West,280,0.0,0.0,98,0.01,,---,0.51,VWS V14.01,2013-01-16 18:48:00,
2013-01-16 13:53:00,32.7,32.2,29.90,West,278,0.0,0.0,98,0.01,,---,0.51,VWS V14.01,2013-01-16 18:53:00,
2013-01-16 13:58:00,32.7,32.2,29.92,South,177,0.0,0.0,98,0.02,,---,0.52,VWS V14.01,2013-01-16 18:58:00,
2013-01-16 14:03:00,32.8,32.3,29.93,WSW,246,0.0,0.0,98,0.02,,---,0.52,VWS V14.01,2013-01-16 19:03:00,
2013-01-16 14:08:00,32.8,32.3,29.92,WSW,246,0.0,0.0,98,0.02,,---,0.52,VWS V14.01,2013-01-16 19:08:00,
2013-01-16 14:13:00,32.9,32.4,29.92,WSW,246,0.0,0.0,98,0.02,,---,0.52,VWS V14.01,2013-01-16 19:13:00,
2013-01-16 14:19:00,32.9,32.4,29.92,WSW,245,0.0,0.0,98,0.02,,---,0.52,VWS V14.01,2013-01-16 19:19:00,
2013-01-16 14:24:00,32.8,32.3,29.92,WSW,246,0.0,0.0,98,0.02,,---,0.52,VWS V14.01,2013-01-16 19:24:00,
2013-01-16 14:29:00,32.8,32.3,29.93,WSW,246,0.0,0.0,98,0.01,,---,0.52,VWS V14.01,2013-01-16 19:29:00,
2013-01-16 14:34:00,32.9,32.4,29.92,WSW,246,0.0,0.0,98,0.01,,---,0.52,VWS V14.01,2013-01-16 19:34:00,
2013-01-16 14:39:00,32.8,32.3,29.92,SW,229,0.0,0.0,98,0.02,,---,0.53,VWS V14.01,2013-01-16 19:39:00,
2013-01-16 14:44:00,32.9,32.4,29.92,SSE,155,0.0,0.0,98,0.02,,---,0.53,VWS V14.01,2013-01-16 19:44:00,
2013-01-16 14:49:00,32.9,32.4,29.92,SE,141,0.0,0.0,98,0.02,,---,0.53,VWS V14.01,2013-01-16 19:49:00,
2013-01-16 14:54:00,33.0,32.5,29.93,SE,144,0.0,0.0,98,0.02,,---,0.53,VWS V14.01,2013-01-16 19:54:00,
2013-01-16 14:59:00,33.0,32.5,29.93,SE,143,0.0,0.0,98,0.01,,---,0.53,VWS V14.01,2013-01-16 19:59:00,
2013-01-16 15:04:00,33.1,32.6,29.93,SE,144,0.0,0.0,98,0.01,,---,0.53,VWS V14.01,2013-01-16 20:04:00,
2013-01-16 15:09:00,33.0,32.5,29.94,South,186,0.0,0.0,98,0.01,,---,0.53,VWS V14.01,2013-01-16 20:09:00,
2013-01-16 15:14:00,33.0,32.5,29.94,South,186,0.0,0.0,98,0.01,,---,0.53,VWS V14.01,2013-01-16 20:14:00,
2013-01-16 15:19:00,33.0,32.5,29.94,South,186,0.0,0.0,98,0.01,,---,0.53,VWS V14.01,2013-01-16 20:19:00,
2013-01-16 15:24:00,33.0,32.5,29.95,South,186,0.0,0.0,98,0.01,,---,0.53,VWS V14.01,2013-01-16 20:24:00,
2013-01-16 15:29:00,33.1,32.6,29.94,South,186,0.0,0.0,98,0.01,,---,0.53,VWS V14.01,2013-01-16 20:29:00,
2013-01-16 15:35:00,33.1,32.6,29.94,South,186,0.0,0.0,98,0.02,,---,0.54,VWS V14.01,2013-01-16 20:35:00,
2013-01-16 15:40:00,33.1,32.6,29.94,South,186,0.0,0.0,98,0.01,,---,0.54,VWS V14.01,2013-01-16 20:40:00,
2013-01-16 15:45:00,33.0,32.5,29.94,South,186,0.0,0.0,98,0.01,,---,0.54,VWS V14.01,2013-01-16 20:45:00,
2013-01-16 15:50:00,33.2,32.7,29.95,SW,224,0.0,0.0,98,0.01,,---,0.54,VWS V14.01,2013-01-16 20:50:00,
2013-01-16 15:55:00,33.4,32.9,29.94,SW,224,0.0,0.0,98,0.01,,---,0.54,VWS V14.01,2013-01-16 20:55:00,
2013-01-16 16:00:00,33.6,33.1,29.95,SW,225,0.0,0.0,98,0.01,,---,0.54,VWS V14.01,2013-01-16 21:00:00,
2013-01-16 16:05:00,33.5,33.0,29.94,SW,224,0.0,0.0,98,0.01,,---,0.54,VWS V14.01,2013-01-16 21:05:00,
2013-01-16 16:10:00,33.6,33.1,29.95,SW,224,0.0,0.0,98,0.01,,---,0.54,VWS V14.01,2013-01-16 21:10:00,
2013-01-16 16:16:00,33.7,33.2,29.96,SW,224,0.0,0.0,98,0.01,,---,0.54,VWS V14.01,2013-01-16 21:16:00,
2013-01-16 16:21:00,33.7,33.2,29.96,SW,224,0.0,0.0,98,0.01,,---,0.54,VWS V14.01,2013-01-16 21:21:00,
2013-01-16 16:26:00,33.8,33.3,29.96,SW,224,0.0,0.0,98,0.01,,---,0.54,VWS V14.01,2013-01-16 21:26:00,
2013-01-16 16:31:00,33.9,33.4,29.97,SW,224,0.0,0.0,98,0.01,,---,0.54,VWS V14.01,2013-01-16 21:31:00,
2013-01-16 16:36:00,34.0,33.5,29.97,SW,224,0.0,0.0,98,0.00,,---,0.54,VWS V14.01,2013-01-16 21:36:00,
2013-01-16 16:41:00,34.1,33.6,29.96,SW,224,0.0,0.0,98,0.00,,---,0.54,VWS V14.01,2013-01-16 21:41:00,
2013-01-16 16:46:00,34.3,33.8,29.97,SW,224,0.0,0.0,98,0.00,,---,0.54,VWS V14.01,2013-01-16 21:46:00,
2013-01-16 16:51:00,34.4,33.9,29.98,NNE,24,0.0,0.0,98,0.00,,---,0.54,VWS V14.01,2013-01-16 21:51:00,
2013-01-16 16:56:00,34.5,34.0,29.97,NNE,24,0.0,0.0,98,0.00,,---,0.54,VWS V14.01,2013-01-16 21:56:00,
2013-01-16 17:02:00,34.5,34.0,29.98,NNE,25,0.0,0.0,98,0.00,,---,0.54,VWS V14.01,2013-01-16 22:02:00,
2013-01-16 17:07:00,34.5,34.0,29.97,NNE,24,0.0,0.0,98,0.00,,---,0.54,VWS V14.01,2013-01-16 22:07:00,
2013-01-16 17:12:00,34.5,34.0,29.97,NNE,25,0.0,0.0,98,0.00,,---,0.54,VWS V14.01,2013-01-16 22:12:00,
2013-01-16 17:17:00,34.4,33.9,29.97,NNE,25,0.0,0.0,98,0.00,,---,0.54,VWS V14.01,2013-01-16 22:17:00,
2013-01-16 17:22:00,34.5,34.0,29.97,NNE,25,0.0,0.0,98,0.00,,---,0.54,VWS V14.01,2013-01-16 22:22:00,
2013-01-16 17:27:00,34.6,34.1,29.97,NNE,24,0.0,0.0,98,0.00,,---,0.54,VWS V14.01,2013-01-16 22:27:00,
2013-01-16 17:32:00,34.7,34.2,29.98,NNE,25,0.0,0.0,98,0.00,,---,0.54,VWS V14.01,2013-01-16 22:32:00,
2013-01-16 17:37:00,34.7,34.2,29.98,NNE,25,1.0,1.0,98,0.00,,---,0.54,VWS V14.01,2013-01-16 22:37:00,
2013-01-16 17:42:00,34.8,34.3,29.98,NNE,25,0.0,0.0,98,0.00,,---,0.54,VWS V14.01,2013-01-16 22:42:00,
2013-01-16 17:47:00,34.8,34.3,29.98,NNE,25,0.0,0.0,98,0.00,,---,0.54,VWS V14.01,2013-01-16 22:47:00,
2013-01-16 17:52:00,34.9,34.4,29.98,NNE,24,0.0,0.0,98,0.00,,---,0.54,VWS V14.01,2013-01-16 22:52:00,
2013-01-16 17:57:00,34.8,34.3,29.98,NNE,24,0.0,0.0,98,0.00,,---,0.54,VWS V14.01,2013-01-16 22:57:00,
2013-01-16 18:03:00,34.9,34.4,29.98,NNE,25,0.0,0.0,98,0.00,,---,0.54,VWS V14.01,2013-01-16 23:03:00,
2013-01-16 18:08:00,34.9,34.4,29.98,WSW,242,0.0,0.0,98,0.00,,---,0.54,VWS V14.01,2013-01-16 23:08:00,
2013-01-16 18:13:00,35.1,34.6,29.98,SSW,210,0.0,0.0,98,0.00,,---,0.54,VWS V14.01,2013-01-16 23:13:00,
2013-01-16 18:18:00,35.9,35.4,29.97,WNW,285,0.0,0.0,98,0.00,,---,0.54,VWS V14.01,2013-01-16 23:18:00,
2013-01-16 18:23:00,36.1,35.6,29.97,WNW,283,0.0,0.0,98,0.00,,---,0.54,VWS V14.01,2013-01-16 23:23:00,
2013-01-16 18:28:00,36.2,35.7,29.97,WNW,285,0.0,0.0,98,0.00,,---,0.54,VWS V14.01,2013-01-16 23:28:00,
2013-01-16 18:34:00,36.3,35.8,29.98,WNW,286,0.0,0.0,98,0.00,,---,0.54,VWS V14.01,2013-01-16 23:34:00,
2013-01-16 18:39:00,36.4,35.9,29.99,WNW,283,0.0,0.0,98,0.00,,---,0.54,VWS V14.01,2013-01-16 23:39:00,
2013-01-16 18:44:00,36.6,36.1,29.99,North,5,0.0,0.0,98,0.00,,---,0.54,VWS V14.01,2013-01-16 23:44:00,
2013-01-16 18:49:00,36.8,36.5,29.99,SW,226,0.0,0.0,99,0.00,,---,0.54,VWS V14.01,2013-01-16 23:49:00,
2013-01-16 18:54:00,37.0,36.8,29.99,SW,225,0.0,0.0,99,0.00,,---,0.54,VWS V14.01,2013-01-16 23:54:00,
2013-01-16 18:59:00,37.1,36.8,30.00,SW,224,0.0,0.0,99,0.00,,---,0.54,VWS V14.01,2013-01-16 23:59:00,
2013-01-16 19:04:00,37.2,37.0,30.00,West,276,0.0,0.0,99,0.00,,---,0.54,VWS V14.01,2013-01-17 00:04:00,
2013-01-16 19:09:00,37.3,36.8,29.99,West,277,0.0,0.0,98,0.00,,---,0.54,VWS V14.01,2013-01-17 00:09:00,
2013-01-16 19:14:00,37.5,37.2,30.00,NE,44,0.0,0.0,99,0.00,,---,0.54,VWS V14.01,2013-01-17 00:14:00,
2013-01-16 19:19:00,37.5,37.0,29.99,West,273,0.0,0.0,98,0.00,,---,0.54,VWS V14.01,2013-01-17 00:19:00,
2013-01-16 19:24:00,37.5,37.0,30.00,WSW,245,0.0,1.0,98,0.00,,---,0.54,VWS V14.01,2013-01-17 00:24:00,
2013-01-16 19:29:00,37.4,36.9,29.99,WSW,245,0.0,0.0,98,0.00,,---,0.54,VWS V14.01,2013-01-17 00:29:00,
2013-01-16 19:35:00,37.4,36.9,30.00,West,277,0.0,0.0,98,0.00,,---,0.54,VWS V14.01,2013-01-17 00:35:00,
2013-01-16 19:40:00,37.5,37.0,29.99,West,266,0.0,0.0,98,0.00,,---,0.54,VWS V14.01,2013-01-17 00:40:00,
2013-01-16 19:45:00,37.5,37.0,30.00,West,261,0.0,0.0,98,0.00,,---,0.54,VWS V14.01,2013-01-17 00:45:00,
2013-01-16 19:50:00,37.6,37.1,30.00,West,263,0.0,0.0,98,0.00,,---,0.54,VWS V14.01,2013-01-17 00:50:00,
2013-01-16 19:55:00,37.6,37.1,30.00,West,263,0.0,1.0,98,0.00,,---,0.54,VWS V14.01,2013-01-17 00:55:00,
2013-01-16 20:00:00,37.7,37.2,30.00,West,270,0.0,0.0,98,0.00,,---,0.54,VWS V14.01,2013-01-17 01:00:00,
2013-01-16 20:05:00,37.8,37.3,30.00,West,270,0.0,0.0,98,0.00,,---,0.54,VWS V14.01,2013-01-17 01:05:00,
2013-01-16 20:11:00,37.8,37.3,29.99,West,270,0.0,0.0,98,0.00,,---,0.54,VWS V14.01,2013-01-17 01:11:00,
2013-01-16 20:16:00,37.8,37.0,29.99,WSW,256,0.0,0.0,97,0.00,,---,0.54,VWS V14.01,2013-01-17 01:16:00,
2013-01-16 20:21:00,37.8,37.0,29.99,WSW,256,0.0,0.0,97,0.00,,---,0.54,VWS V14.01,2013-01-17 01:21:00,
2013-01-16 20:26:00,37.9,37.1,29.99,WSW,257,0.0,0.0,97,0.00,,---,0.54,VWS V14.01,2013-01-17 01:26:00,
2013-01-16 20:31:00,38.1,37.3,30.00,West,263,0.0,0.0,97,0.00,,---,0.54,VWS V14.01,2013-01-17 01:31:00,
2013-01-16 20:36:00,38.2,37.4,30.00,WNW,284,0.0,0.0,97,0.00,,---,0.54,VWS V14.01,2013-01-17 01:36:00,
2013-01-16 20:41:00,38.3,37.3,30.00,WNW,284,0.0,0.0,96,0.00,,---,0.54,VWS V14.01,2013-01-17 01:41:00,
2013-01-16 20:47:00,38.3,37.3,30.00,ESE,116,0.0,0.0,96,0.00,,---,0.54,VWS V14.01,2013-01-17 01:47:00,
2013-01-16 20:52:00,38.3,37.3,29.99,NNW,329,0.0,0.0,96,0.00,,---,0.54,VWS V14.01,2013-01-17 01:52:00,
2013-01-16 20:57:00,38.2,36.9,29.99,NNW,329,0.0,0.0,95,0.00,,---,0.54,VWS V14.01,2013-01-17 01:57:00,
2013-01-16 21:02:00,38.1,36.8,29.99,NW,320,0.0,0.0,95,0.00,,---,0.54,VWS V14.01,2013-01-17 02:02:00,
2013-01-16 21:07:00,38.1,36.8,29.99,NW,320,0.0,0.0,95,0.00,,---,0.54,VWS V14.01,2013-01-17 02:07:00,
2013-01-16 21:12:00,38.2,36.9,30.00,NW,321,0.0,0.0,95,0.00,,---,0.54,VWS V14.01,2013-01-17 02:12:00,
2013-01-16 21:17:00,38.2,36.9,30.01,NW,321,0.0,0.0,95,0.00,,---,0.54,VWS V14.01,2013-01-17 02:17:00,
2013-01-16 21:22:00,38.2,36.9,30.00,NNW,341,0.0,0.0,95,0.00,,---,0.54,VWS V14.01,2013-01-17 02:22:00,
2013-01-16 21:27:00,38.2,36.9,29.99,NNW,340,0.0,0.0,95,0.00,,---,0.54,VWS V14.01,2013-01-17 02:27:00,
2013-01-16 21:33:00,38.2,36.9,29.99,NNW,340,0.0,0.0,95,0.00,,---,0.54,VWS V14.01,2013-01-17 02:33:00,
2013-01-16 21:38:00,38.1,36.8,30.00,NNW,340,0.0,0.0,95,0.00,,---,0.54,VWS V14.01,2013-01-17 02:38:00,
2013-01-16 21:43:00,38.3,37.3,30.00,NNW,339,1.0,1.0,96,0.00,,---,0.54,VWS V14.01,2013-01-17 02:43:00,
2013-01-16 21:48:00,38.4,37.1,30.00,NNW,338,0.0,0.0,95,0.00,,---,0.54,VWS V14.01,2013-01-17 02:48:00,
2013-01-16 21:53:00,38.5,37.2,30.01,NNW,337,0.0,0.0,95,0.00,,---,0.54,VWS V14.01,2013-01-17 02:53:00,
2013-01-16 21:58:00,38.6,37.3,30.00,NNW,334,0.0,0.0,95,0.00,,---,0.54,VWS V14.01,2013-01-17 02:58:00,
2013-01-16 22:04:00,38.7,37.4,30.00,NNW,335,0.0,0.0,95,0.00,,---,0.54,VWS V14.01,2013-01-17 03:04:00,
2013-01-16 22:09:00,38.7,37.4,30.00,NNW,334,0.0,0.0,95,0.00,,---,0.54,VWS V14.01,2013-01-17 03:09:00,
2013-01-16 22:14:00,38.7,37.4,30.00,NW,319,2.0,2.0,95,0.00,,---,0.54,VWS V14.01,2013-01-17 03:14:00,
2013-01-16 22:19:00,38.9,37.6,30.00,NNW,333,0.0,0.0,95,0.00,,---,0.54,VWS V14.01,2013-01-17 03:19:00,
2013-01-16 22:24:00,38.9,37.3,29.99,NNW,333,0.0,0.0,94,0.00,,---,0.54,VWS V14.01,2013-01-17 03:24:00,
2013-01-16 22:29:00,38.8,37.2,29.99,NNW,332,0.0,0.0,94,0.00,,---,0.54,VWS V14.01,2013-01-17 03:29:00,
2013-01-16 22:34:00,38.8,37.2,30.00,NNW,331,0.0,0.0,94,0.00,,---,0.54,VWS V14.01,2013-01-17 03:34:00,
2013-01-16 22:39:00,38.6,37.3,30.00,NNW,333,0.0,0.0,95,0.00,,---,0.54,VWS V14.01,2013-01-17 03:39:00,
2013-01-16 22:44:00,38.4,37.1,30.00,NNW,333,0.0,0.0,95,0.00,,---,0.54,VWS V14.01,2013-01-17 03:44:00,
2013-01-16 22:50:00,38.1,36.8,30.00,NNW,333,0.0,0.0,95,0.00,,---,0.54,VWS V14.01,2013-01-17 03:50:00,
2013-01-16 22:55:00,37.9,36.6,30.00,NNW,333,0.0,0.0,95,0.00,,---,0.54,VWS V14.01,2013-01-17 03:55:00,
2013-01-16 23:00:00,37.7,36.4,30.00,NNW,333,0.0,0.0,95,0.00,,---,0.54,VWS V14.01,2013-01-17 04:00:00,
2013-01-16 23:05:00,37.5,36.5,30.00,NNW,333,0.0,0.0,96,0.00,,---,0.54,VWS V14.01,2013-01-17 04:05:00,
2013-01-16 23:11:00,37.5,36.5,30.00,NNW,333,0.0,0.0,96,0.00,,---,0.54,VWS V14.01,2013-01-17 04:11:00,
2013-01-16 23:16:00,37.4,36.4,30.00,NNW,341,0.0,0.0,96,0.00,,---,0.54,VWS V14.01,2013-01-17 04:16:00,
2013-01-16 23:21:00,37.3,36.3,29.99,NNW,341,0.0,0.0,96,0.00,,---,0.54,VWS V14.01,2013-01-17 04:21:00,
2013-01-16 23:26:00,37.2,36.2,29.99,NNW,342,0.0,0.0,96,0.00,,---,0.54,VWS V14.01,2013-01-17 04:26:00,
2013-01-16 23:31:00,37.2,36.2,29.99,NNW,342,0.0,0.0,96,0.00,,---,0.54,VWS V14.01,2013-01-17 04:31:00,
2013-01-16 23:36:00,37.1,36.1,30.00,NNW,342,0.0,0.0,96,0.00,,---,0.54,VWS V14.01,2013-01-17 04:36:00,
2013-01-16 23:41:00,37.1,36.1,29.98,NNW,341,0.0,0.0,96,0.00,,---,0.54,VWS V14.01,2013-01-17 04:41:00,
2013-01-16 23:46:00,37.1,36.1,29.99,WNW,293,0.0,0.0,96,0.00,,---,0.54,VWS V14.01,2013-01-17 04:46:00,
2013-01-16 23:51:00,37.3,36.3,29.98,NE,50,0.0,1.0,96,0.00,,---,0.54,VWS V14.01,2013-01-17 04:51:00,
2013-01-16 23:56:00,37.5,36.2,29.99,NE,49,0.0,0.0,95,0.00,,---,0.54,VWS V14.01,2013-01-17 04:56:00,